sensor_id;sensor_type;location;lat;lon;timestamp;P1;durP1;ratioP1;P2;durP2;ratioP2
28447;SDS011;15675;52.870;-1.416;2023-04-21T00:02:02;23.95;;;8.02;;
28447;SDS011;15675;52.870;-1.416;2023-04-21T00:04:27;22.13;;;6.00;;
28447;SDS011;15675;52.870;-1.416;2023-04-21T00:06:53;22.65;;;6.95;;
28447;SDS011;15675;52.870;-1.416;2023-04-21T00:09:19;21.60;;;8.75;;
28447;SDS011;15675;52.870;-1.416;2023-04-21T00:11:46;18.13;;;6.68;;
28447;SDS011;15675;52.870;-1.416;2023-04-21T00:14:11;20.75;;;7.78;;
28447;SDS011;15675;52.870;-1.416;2023-04-21T00:16:37;20.77;;;8.57;;
28447;SDS011;15675;52.870;-1.416;2023-04-21T00:19:02;21.42;;;10.30;;
28447;SDS011;15675;52.870;-1.416;2023-04-21T00:21:34;22.10;;;7.80;;
28447;SDS011;15675;52.870;-1.416;2023-04-21T00:24:00;25.98;;;8.77;;
28447;SDS011;15675;52.870;-1.416;2023-04-21T00:26:26;15.27;;;7.03;;
28447;SDS011;15675;52.870;-1.416;2023-04-21T00:28:51;21.70;;;9.48;;
28447;SDS011;15675;52.870;-1.416;2023-04-21T00:31:17;23.80;;;8.20;;
28447;SDS011;15675;52.870;-1.416;2023-04-21T00:33:42;12.05;;;5.63;;
28447;SDS011;15675;52.870;-1.416;2023-04-21T00:36:08;24.08;;;9.68;;
28447;SDS011;15675;52.870;-1.416;2023-04-21T00:38:33;21.73;;;7.88;;
28447;SDS011;15675;52.870;-1.416;2023-04-21T00:40:58;25.70;;;9.23;;
28447;SDS011;15675;52.870;-1.416;2023-04-21T00:43:24;9.57;;;6.35;;
28447;SDS011;15675;52.870;-1.416;2023-04-21T00:45:50;18.10;;;7.70;;
28447;SDS011;15675;52.870;-1.416;2023-04-21T00:48:15;14.65;;;7.28;;
28447;SDS011;15675;52.870;-1.416;2023-04-21T00:50:42;16.83;;;9.43;;
28447;SDS011;15675;52.870;-1.416;2023-04-21T00:53:08;36.65;;;11.43;;
28447;SDS011;15675;52.870;-1.416;2023-04-21T00:55:35;23.08;;;9.35;;
28447;SDS011;15675;52.870;-1.416;2023-04-21T00:58:01;17.30;;;6.90;;
28447;SDS011;15675;52.870;-1.416;2023-04-21T01:00:28;30.77;;;10.35;;
28447;SDS011;15675;52.870;-1.416;2023-04-21T01:02:53;22.88;;;8.75;;
28447;SDS011;15675;52.870;-1.416;2023-04-21T01:05:20;35.22;;;10.48;;
28447;SDS011;15675;52.870;-1.416;2023-04-21T01:07:46;25.23;;;10.90;;
28447;SDS011;15675;52.870;-1.416;2023-04-21T01:10:11;21.35;;;8.30;;
28447;SDS011;15675;52.870;-1.416;2023-04-21T01:12:41;25.08;;;8.43;;
28447;SDS011;15675;52.870;-1.416;2023-04-21T01:15:08;24.55;;;8.73;;
28447;SDS011;15675;52.870;-1.416;2023-04-21T01:17:34;26.77;;;9.25;;
28447;SDS011;15675;52.870;-1.416;2023-04-21T01:20:04;19.77;;;11.07;;
28447;SDS011;15675;52.870;-1.416;2023-04-21T01:22:33;22.20;;;8.65;;
28447;SDS011;15675;52.870;-1.416;2023-04-21T01:25:01;32.00;;;9.77;;
28447;SDS011;15675;52.870;-1.416;2023-04-21T01:27:27;31.38;;;11.40;;
28447;SDS011;15675;52.870;-1.416;2023-04-21T01:29:53;21.52;;;8.13;;
28447;SDS011;15675;52.870;-1.416;2023-04-21T01:32:20;29.92;;;10.40;;
28447;SDS011;15675;52.870;-1.416;2023-04-21T01:34:48;25.13;;;11.65;;
28447;SDS011;15675;52.870;-1.416;2023-04-21T01:37:16;18.45;;;6.90;;
28447;SDS011;15675;52.870;-1.416;2023-04-21T01:39:45;9.43;;;5.55;;
28447;SDS011;15675;52.870;-1.416;2023-04-21T01:42:16;22.08;;;8.75;;
28447;SDS011;15675;52.870;-1.416;2023-04-21T01:44:43;20.67;;;7.00;;
28447;SDS011;15675;52.870;-1.416;2023-04-21T01:47:11;19.70;;;9.13;;
28447;SDS011;15675;52.870;-1.416;2023-04-21T01:49:37;29.63;;;11.30;;
28447;SDS011;15675;52.870;-1.416;2023-04-21T01:52:02;23.83;;;9.43;;
28447;SDS011;15675;52.870;-1.416;2023-04-21T01:54:28;36.83;;;11.73;;
28447;SDS011;15675;52.870;-1.416;2023-04-21T01:56:54;29.65;;;12.10;;
28447;SDS011;15675;52.870;-1.416;2023-04-21T01:59:20;20.65;;;9.77;;
28447;SDS011;15675;52.870;-1.416;2023-04-21T02:01:46;18.67;;;8.60;;
28447;SDS011;15675;52.870;-1.416;2023-04-21T02:04:11;21.67;;;10.18;;
28447;SDS011;15675;52.870;-1.416;2023-04-21T02:06:37;33.75;;;14.07;;
28447;SDS011;15675;52.870;-1.416;2023-04-21T02:09:03;29.02;;;13.18;;
28447;SDS011;15675;52.870;-1.416;2023-04-21T02:11:28;31.15;;;12.35;;
28447;SDS011;15675;52.870;-1.416;2023-04-21T02:13:54;34.67;;;13.40;;
28447;SDS011;15675;52.870;-1.416;2023-04-21T02:16:21;31.10;;;12.25;;
28447;SDS011;15675;52.870;-1.416;2023-04-21T02:18:53;23.35;;;9.35;;
28447;SDS011;15675;52.870;-1.416;2023-04-21T02:21:21;29.05;;;12.38;;
28447;SDS011;15675;52.870;-1.416;2023-04-21T02:23:47;30.13;;;13.05;;
28447;SDS011;15675;52.870;-1.416;2023-04-21T02:26:13;28.98;;;11.18;;
28447;SDS011;15675;52.870;-1.416;2023-04-21T02:28:39;28.73;;;12.70;;
28447;SDS011;15675;52.870;-1.416;2023-04-21T02:31:04;19.15;;;10.10;;
28447;SDS011;15675;52.870;-1.416;2023-04-21T02:33:30;26.10;;;12.13;;
28447;SDS011;15675;52.870;-1.416;2023-04-21T02:35:55;25.35;;;13.50;;
28447;SDS011;15675;52.870;-1.416;2023-04-21T02:38:21;14.15;;;9.15;;
28447;SDS011;15675;52.870;-1.416;2023-04-21T02:40:46;26.42;;;13.45;;
28447;SDS011;15675;52.870;-1.416;2023-04-21T02:43:13;18.23;;;11.05;;
28447;SDS011;15675;52.870;-1.416;2023-04-21T02:45:38;36.08;;;14.95;;
28447;SDS011;15675;52.870;-1.416;2023-04-21T02:48:04;27.77;;;13.80;;
28447;SDS011;15675;52.870;-1.416;2023-04-21T02:50:30;24.05;;;13.25;;
28447;SDS011;15675;52.870;-1.416;2023-04-21T02:52:55;32.17;;;13.18;;
28447;SDS011;15675;52.870;-1.416;2023-04-21T02:55:21;33.13;;;15.23;;
28447;SDS011;15675;52.870;-1.416;2023-04-21T02:57:47;27.90;;;15.45;;
28447;SDS011;15675;52.870;-1.416;2023-04-21T03:00:12;36.72;;;16.58;;
28447;SDS011;15675;52.870;-1.416;2023-04-21T03:02:39;38.45;;;15.40;;
28447;SDS011;15675;52.870;-1.416;2023-04-21T03:05:05;34.45;;;16.40;;
28447;SDS011;15675;52.870;-1.416;2023-04-21T03:07:31;35.85;;;16.25;;
28447;SDS011;15675;52.870;-1.416;2023-04-21T03:09:56;30.45;;;15.20;;
28447;SDS011;15675;52.870;-1.416;2023-04-21T03:12:22;29.08;;;15.57;;
28447;SDS011;15675;52.870;-1.416;2023-04-21T03:14:48;30.35;;;13.93;;
28447;SDS011;15675;52.870;-1.416;2023-04-21T03:17:13;37.97;;;14.27;;
28447;SDS011;15675;52.870;-1.416;2023-04-21T03:19:39;32.30;;;11.77;;
28447;SDS011;15675;52.870;-1.416;2023-04-21T03:22:05;33.58;;;14.93;;
28447;SDS011;15675;52.870;-1.416;2023-04-21T03:24:30;25.58;;;11.38;;
28447;SDS011;15675;52.870;-1.416;2023-04-21T03:26:56;28.95;;;14.38;;
28447;SDS011;15675;52.870;-1.416;2023-04-21T03:29:22;22.75;;;11.88;;
28447;SDS011;15675;52.870;-1.416;2023-04-21T03:31:47;26.23;;;13.20;;
28447;SDS011;15675;52.870;-1.416;2023-04-21T03:34:13;24.58;;;13.52;;
28447;SDS011;15675;52.870;-1.416;2023-04-21T03:36:39;22.52;;;12.57;;
28447;SDS011;15675;52.870;-1.416;2023-04-21T03:39:04;23.95;;;12.50;;
28447;SDS011;15675;52.870;-1.416;2023-04-21T03:41:32;22.45;;;11.73;;
28447;SDS011;15675;52.870;-1.416;2023-04-21T03:43:57;17.48;;;9.32;;
28447;SDS011;15675;52.870;-1.416;2023-04-21T03:46:23;22.45;;;13.48;;
28447;SDS011;15675;52.870;-1.416;2023-04-21T03:48:48;22.58;;;12.73;;
28447;SDS011;15675;52.870;-1.416;2023-04-21T03:51:14;25.20;;;13.20;;
28447;SDS011;15675;52.870;-1.416;2023-04-21T03:53:40;31.10;;;12.73;;
28447;SDS011;15675;52.870;-1.416;2023-04-21T03:56:05;24.15;;;12.90;;
28447;SDS011;15675;52.870;-1.416;2023-04-21T03:58:32;31.30;;;13.50;;
28447;SDS011;15675;52.870;-1.416;2023-04-21T04:00:58;30.08;;;14.48;;
28447;SDS011;15675;52.870;-1.416;2023-04-21T04:03:24;23.83;;;13.13;;
28447;SDS011;15675;52.870;-1.416;2023-04-21T04:05:50;29.77;;;14.50;;
28447;SDS011;15675;52.870;-1.416;2023-04-21T04:08:15;26.35;;;15.23;;
28447;SDS011;15675;52.870;-1.416;2023-04-21T04:10:40;29.05;;;14.77;;
28447;SDS011;15675;52.870;-1.416;2023-04-21T04:13:06;27.25;;;13.60;;
28447;SDS011;15675;52.870;-1.416;2023-04-21T04:15:31;32.70;;;16.50;;
28447;SDS011;15675;52.870;-1.416;2023-04-21T04:17:57;26.73;;;15.77;;
28447;SDS011;15675;52.870;-1.416;2023-04-21T04:20:22;33.97;;;16.48;;
28447;SDS011;15675;52.870;-1.416;2023-04-21T04:22:48;32.08;;;16.30;;
28447;SDS011;15675;52.870;-1.416;2023-04-21T04:25:13;29.67;;;17.67;;
28447;SDS011;15675;52.870;-1.416;2023-04-21T04:27:41;28.42;;;17.38;;
28447;SDS011;15675;52.870;-1.416;2023-04-21T04:30:08;35.20;;;17.70;;
28447;SDS011;15675;52.870;-1.416;2023-04-21T04:32:35;38.72;;;20.80;;
28447;SDS011;15675;52.870;-1.416;2023-04-21T04:35:06;41.40;;;19.50;;
28447;SDS011;15675;52.870;-1.416;2023-04-21T04:37:34;36.92;;;21.13;;
28447;SDS011;15675;52.870;-1.416;2023-04-21T04:40:00;39.30;;;21.38;;
28447;SDS011;15675;52.870;-1.416;2023-04-21T04:42:26;41.10;;;22.55;;
28447;SDS011;15675;52.870;-1.416;2023-04-21T04:44:53;39.28;;;22.10;;
28447;SDS011;15675;52.870;-1.416;2023-04-21T04:47:19;48.85;;;24.42;;
28447;SDS011;15675;52.870;-1.416;2023-04-21T04:49:44;49.72;;;26.00;;
28447;SDS011;15675;52.870;-1.416;2023-04-21T04:52:10;45.28;;;24.00;;
28447;SDS011;15675;52.870;-1.416;2023-04-21T04:54:35;47.30;;;27.10;;
28447;SDS011;15675;52.870;-1.416;2023-04-21T04:57:01;54.00;;;26.80;;
28447;SDS011;15675;52.870;-1.416;2023-04-21T04:59:26;49.90;;;26.17;;
28447;SDS011;15675;52.870;-1.416;2023-04-21T05:01:52;55.13;;;28.67;;
28447;SDS011;15675;52.870;-1.416;2023-04-21T05:04:18;57.03;;;29.48;;
28447;SDS011;15675;52.870;-1.416;2023-04-21T05:06:44;63.08;;;29.70;;
28447;SDS011;15675;52.870;-1.416;2023-04-21T05:09:09;54.95;;;27.95;;
28447;SDS011;15675;52.870;-1.416;2023-04-21T05:11:35;64.10;;;29.58;;
28447;SDS011;15675;52.870;-1.416;2023-04-21T05:14:00;66.03;;;29.55;;
28447;SDS011;15675;52.870;-1.416;2023-04-21T05:16:26;63.47;;;29.38;;
28447;SDS011;15675;52.870;-1.416;2023-04-21T05:18:51;70.05;;;31.20;;
28447;SDS011;15675;52.870;-1.416;2023-04-21T05:21:23;60.25;;;25.67;;
28447;SDS011;15675;52.870;-1.416;2023-04-21T05:23:55;68.07;;;31.27;;
28447;SDS011;15675;52.870;-1.416;2023-04-21T05:26:21;58.75;;;26.38;;
28447;SDS011;15675;52.870;-1.416;2023-04-21T05:28:48;64.78;;;26.92;;
28447;SDS011;15675;52.870;-1.416;2023-04-21T05:31:13;64.93;;;27.60;;
28447;SDS011;15675;52.870;-1.416;2023-04-21T05:33:39;41.22;;;20.45;;
28447;SDS011;15675;52.870;-1.416;2023-04-21T05:36:07;63.42;;;25.98;;
28447;SDS011;15675;52.870;-1.416;2023-04-21T05:38:34;50.20;;;24.98;;
28447;SDS011;15675;52.870;-1.416;2023-04-21T05:41:00;65.50;;;25.00;;
28447;SDS011;15675;52.870;-1.416;2023-04-21T05:43:26;62.58;;;23.83;;
28447;SDS011;15675;52.870;-1.416;2023-04-21T05:45:52;46.90;;;25.10;;
28447;SDS011;15675;52.870;-1.416;2023-04-21T05:48:17;54.70;;;25.05;;
28447;SDS011;15675;52.870;-1.416;2023-04-21T05:50:43;56.53;;;25.40;;
28447;SDS011;15675;52.870;-1.416;2023-04-21T05:53:08;51.35;;;25.25;;
28447;SDS011;15675;52.870;-1.416;2023-04-21T05:55:34;39.28;;;18.27;;
28447;SDS011;15675;52.870;-1.416;2023-04-21T05:58:00;63.33;;;27.63;;
28447;SDS011;15675;52.870;-1.416;2023-04-21T06:00:26;49.85;;;24.33;;
28447;SDS011;15675;52.870;-1.416;2023-04-21T06:02:51;58.90;;;27.88;;
28447;SDS011;15675;52.870;-1.416;2023-04-21T06:05:17;58.17;;;28.55;;
28447;SDS011;15675;52.870;-1.416;2023-04-21T06:07:43;60.03;;;28.95;;
28447;SDS011;15675;52.870;-1.416;2023-04-21T06:10:09;67.82;;;30.25;;
28447;SDS011;15675;52.870;-1.416;2023-04-21T06:12:35;65.32;;;30.83;;
28447;SDS011;15675;52.870;-1.416;2023-04-21T06:15:01;67.55;;;31.13;;
28447;SDS011;15675;52.870;-1.416;2023-04-21T06:17:27;60.42;;;29.70;;
28447;SDS011;15675;52.870;-1.416;2023-04-21T06:19:52;65.03;;;29.20;;
28447;SDS011;15675;52.870;-1.416;2023-04-21T06:22:18;65.63;;;29.98;;
28447;SDS011;15675;52.870;-1.416;2023-04-21T06:24:45;51.97;;;24.90;;
28447;SDS011;15675;52.870;-1.416;2023-04-21T06:27:11;52.30;;;28.60;;
28447;SDS011;15675;52.870;-1.416;2023-04-21T06:29:37;58.83;;;28.27;;
28447;SDS011;15675;52.870;-1.416;2023-04-21T06:32:03;65.00;;;29.35;;
28447;SDS011;15675;52.870;-1.416;2023-04-21T06:34:29;57.83;;;29.95;;
28447;SDS011;15675;52.870;-1.416;2023-04-21T06:36:54;62.15;;;30.73;;
28447;SDS011;15675;52.870;-1.416;2023-04-21T06:39:20;62.28;;;29.77;;
28447;SDS011;15675;52.870;-1.416;2023-04-21T06:41:46;56.08;;;28.73;;
28447;SDS011;15675;52.870;-1.416;2023-04-21T06:44:11;63.25;;;28.27;;
28447;SDS011;15675;52.870;-1.416;2023-04-21T06:46:39;62.30;;;28.08;;
28447;SDS011;15675;52.870;-1.416;2023-04-21T06:49:08;59.70;;;27.63;;
28447;SDS011;15675;52.870;-1.416;2023-04-21T06:51:35;63.88;;;29.48;;
28447;SDS011;15675;52.870;-1.416;2023-04-21T06:54:03;58.20;;;26.08;;
28447;SDS011;15675;52.870;-1.416;2023-04-21T06:56:30;50.60;;;27.05;;
28447;SDS011;15675;52.870;-1.416;2023-04-21T06:58:55;55.13;;;29.42;;
28447;SDS011;15675;52.870;-1.416;2023-04-21T07:01:21;59.88;;;31.55;;
28447;SDS011;15675;52.870;-1.416;2023-04-21T07:03:48;52.42;;;29.00;;
28447;SDS011;15675;52.870;-1.416;2023-04-21T07:06:15;53.47;;;26.20;;
28447;SDS011;15675;52.870;-1.416;2023-04-21T07:08:40;43.72;;;22.52;;
28447;SDS011;15675;52.870;-1.416;2023-04-21T07:11:06;74.30;;;31.85;;
28447;SDS011;15675;52.870;-1.416;2023-04-21T07:13:32;54.28;;;30.02;;
28447;SDS011;15675;52.870;-1.416;2023-04-21T07:15:57;31.83;;;16.83;;
28447;SDS011;15675;52.870;-1.416;2023-04-21T07:18:23;50.90;;;29.33;;
28447;SDS011;15675;52.870;-1.416;2023-04-21T07:20:48;45.88;;;24.65;;
28447;SDS011;15675;52.870;-1.416;2023-04-21T07:23:14;56.78;;;26.77;;
28447;SDS011;15675;52.870;-1.416;2023-04-21T07:25:40;54.17;;;32.35;;
28447;SDS011;15675;52.870;-1.416;2023-04-21T07:28:05;49.55;;;29.00;;
28447;SDS011;15675;52.870;-1.416;2023-04-21T07:30:31;54.13;;;30.98;;
28447;SDS011;15675;52.870;-1.416;2023-04-21T07:32:56;40.83;;;24.35;;
28447;SDS011;15675;52.870;-1.416;2023-04-21T07:35:22;49.88;;;26.52;;
28447;SDS011;15675;52.870;-1.416;2023-04-21T07:37:48;53.45;;;29.98;;
28447;SDS011;15675;52.870;-1.416;2023-04-21T07:40:14;45.15;;;23.83;;
28447;SDS011;15675;52.870;-1.416;2023-04-21T07:42:39;52.83;;;26.90;;
28447;SDS011;15675;52.870;-1.416;2023-04-21T07:45:05;26.27;;;13.98;;
28447;SDS011;15675;52.870;-1.416;2023-04-21T07:47:31;35.70;;;20.13;;
28447;SDS011;15675;52.870;-1.416;2023-04-21T07:49:57;50.72;;;27.42;;
28447;SDS011;15675;52.870;-1.416;2023-04-21T07:52:23;33.67;;;17.13;;
28447;SDS011;15675;52.870;-1.416;2023-04-21T07:54:48;39.78;;;20.58;;
28447;SDS011;15675;52.870;-1.416;2023-04-21T07:57:14;47.20;;;22.70;;
28447;SDS011;15675;52.870;-1.416;2023-04-21T07:59:40;58.83;;;28.45;;
28447;SDS011;15675;52.870;-1.416;2023-04-21T08:02:06;47.65;;;19.73;;
28447;SDS011;15675;52.870;-1.416;2023-04-21T08:04:32;58.97;;;29.58;;
28447;SDS011;15675;52.870;-1.416;2023-04-21T08:06:57;36.20;;;19.48;;
28447;SDS011;15675;52.870;-1.416;2023-04-21T08:09:23;55.17;;;26.52;;
28447;SDS011;15675;52.870;-1.416;2023-04-21T08:11:48;55.42;;;27.02;;
28447;SDS011;15675;52.870;-1.416;2023-04-21T08:14:14;16.23;;;11.52;;
28447;SDS011;15675;52.870;-1.416;2023-04-21T08:16:39;37.67;;;20.35;;
28447;SDS011;15675;52.870;-1.416;2023-04-21T08:19:06;56.25;;;25.90;;
28447;SDS011;15675;52.870;-1.416;2023-04-21T08:21:33;62.03;;;27.13;;
28447;SDS011;15675;52.870;-1.416;2023-04-21T08:23:59;22.52;;;12.32;;
28447;SDS011;15675;52.870;-1.416;2023-04-21T08:26:25;33.17;;;15.60;;
28447;SDS011;15675;52.870;-1.416;2023-04-21T08:28:51;48.30;;;22.30;;
28447;SDS011;15675;52.870;-1.416;2023-04-21T08:31:17;44.25;;;17.70;;
28447;SDS011;15675;52.870;-1.416;2023-04-21T08:33:43;37.03;;;18.08;;
28447;SDS011;15675;52.870;-1.416;2023-04-21T08:36:09;53.85;;;19.83;;
28447;SDS011;15675;52.870;-1.416;2023-04-21T08:38:41;0.60;;;0.60;;
28447;SDS011;15675;52.870;-1.416;2023-04-21T08:41:07;2.88;;;2.67;;
28447;SDS011;15675;52.870;-1.416;2023-04-21T08:43:33;2.17;;;2.05;;
28447;SDS011;15675;52.870;-1.416;2023-04-21T08:45:59;1.48;;;1.38;;
28447;SDS011;15675;52.870;-1.416;2023-04-21T08:48:30;7.43;;;1.55;;
28447;SDS011;15675;52.870;-1.416;2023-04-21T08:50:59;1.05;;;1.05;;
28447;SDS011;15675;52.870;-1.416;2023-04-21T08:53:26;2.05;;;1.95;;
28447;SDS011;15675;52.870;-1.416;2023-04-21T08:55:51;0.45;;;0.45;;
28447;SDS011;15675;52.870;-1.416;2023-04-21T08:58:19;0.60;;;0.60;;
28447;SDS011;15675;52.870;-1.416;2023-04-21T09:00:49;6.65;;;2.15;;
28447;SDS011;15675;52.870;-1.416;2023-04-21T09:03:22;3.72;;;3.13;;
28447;SDS011;15675;52.870;-1.416;2023-04-21T09:06:00;2.85;;;2.55;;
28447;SDS011;15675;52.870;-1.416;2023-04-21T09:08:30;4.93;;;2.22;;
28447;SDS011;15675;52.870;-1.416;2023-04-21T09:10:57;1.13;;;1.10;;
28447;SDS011;15675;52.870;-1.416;2023-04-21T09:13:34;1.02;;;0.70;;
28447;SDS011;15675;52.870;-1.416;2023-04-21T09:16:01;4.15;;;1.70;;
28447;SDS011;15675;52.870;-1.416;2023-04-21T09:18:39;1.50;;;1.40;;
28447;SDS011;15675;52.870;-1.416;2023-04-21T09:21:10;0.52;;;0.52;;
28447;SDS011;15675;52.870;-1.416;2023-04-21T09:23:38;1.02;;;0.95;;
28447;SDS011;15675;52.870;-1.416;2023-04-21T09:26:22;0.35;;;0.28;;
28447;SDS011;15675;52.870;-1.416;2023-04-21T09:28:48;5.55;;;1.33;;
28447;SDS011;15675;52.870;-1.416;2023-04-21T09:31:16;1.75;;;1.63;;
28447;SDS011;15675;52.870;-1.416;2023-04-21T09:33:44;2.85;;;1.85;;
28447;SDS011;15675;52.870;-1.416;2023-04-21T09:36:16;0.50;;;0.50;;
28447;SDS011;15675;52.870;-1.416;2023-04-21T09:38:53;0.98;;;0.88;;
28447;SDS011;15675;52.870;-1.416;2023-04-21T09:41:21;0.90;;;0.87;;
28447;SDS011;15675;52.870;-1.416;2023-04-21T09:43:47;1.35;;;1.27;;
28447;SDS011;15675;52.870;-1.416;2023-04-21T09:46:16;5.07;;;1.60;;
28447;SDS011;15675;52.870;-1.416;2023-04-21T09:48:42;2.03;;;1.92;;
28447;SDS011;15675;52.870;-1.416;2023-04-21T09:51:10;2.17;;;1.42;;
28447;SDS011;15675;52.870;-1.416;2023-04-21T09:53:38;0.47;;;0.47;;
28447;SDS011;15675;52.870;-1.416;2023-04-21T09:56:05;0.95;;;0.95;;
28447;SDS011;15675;52.870;-1.416;2023-04-21T09:58:50;1.42;;;1.33;;
28447;SDS011;15675;52.870;-1.416;2023-04-21T10:01:17;0.40;;;0.40;;
28447;SDS011;15675;52.870;-1.416;2023-04-21T10:03:43;0.45;;;0.45;;
28447;SDS011;15675;52.870;-1.416;2023-04-21T10:06:11;3.03;;;1.25;;
28447;SDS011;15675;52.870;-1.416;2023-04-21T10:08:37;34.40;;;3.25;;
28447;SDS011;15675;52.870;-1.416;2023-04-21T10:11:03;0.75;;;0.75;;
28447;SDS011;15675;52.870;-1.416;2023-04-21T10:13:30;1.83;;;1.73;;
28447;SDS011;15675;52.870;-1.416;2023-04-21T10:16:00;8.80;;;2.72;;
28447;SDS011;15675;52.870;-1.416;2023-04-21T10:18:27;1.45;;;1.35;;
28447;SDS011;15675;52.870;-1.416;2023-04-21T10:20:57;1.45;;;1.35;;
28447;SDS011;15675;52.870;-1.416;2023-04-21T10:23:45;0.55;;;0.55;;
28447;SDS011;15675;52.870;-1.416;2023-04-21T10:31:22;0.40;;;0.40;;
28447;SDS011;15675;52.870;-1.416;2023-04-21T10:44:43;39.00;;;1.98;;
28447;SDS011;15675;52.870;-1.416;2023-04-21T10:49:57;1.67;;;1.58;;
28447;SDS011;15675;52.870;-1.416;2023-04-21T10:52:32;1.77;;;1.67;;
28447;SDS011;15675;52.870;-1.416;2023-04-21T10:57:23;1.58;;;1.27;;
28447;SDS011;15675;52.870;-1.416;2023-04-21T10:59:49;0.40;;;0.40;;
28447;SDS011;15675;52.870;-1.416;2023-04-21T11:02:15;11.55;;;2.33;;
28447;SDS011;15675;52.870;-1.416;2023-04-21T11:04:42;3.35;;;2.13;;
28447;SDS011;15675;52.870;-1.416;2023-04-21T11:07:14;1.58;;;1.48;;
28447;SDS011;15675;52.870;-1.416;2023-04-21T11:09:44;0.52;;;0.52;;
28447;SDS011;15675;52.870;-1.416;2023-04-21T11:12:13;0.75;;;0.75;;
28447;SDS011;15675;52.870;-1.416;2023-04-21T11:14:40;4.50;;;2.28;;
28447;SDS011;15675;52.870;-1.416;2023-04-21T11:17:14;11.70;;;6.15;;
28447;SDS011;15675;52.870;-1.416;2023-04-21T11:19:44;16.45;;;8.35;;
28447;SDS011;15675;52.870;-1.416;2023-04-21T11:22:10;17.13;;;7.60;;
28447;SDS011;15675;52.870;-1.416;2023-04-21T11:24:35;16.05;;;7.85;;
28447;SDS011;15675;52.870;-1.416;2023-04-21T11:27:01;16.25;;;8.02;;
28447;SDS011;15675;52.870;-1.416;2023-04-21T11:29:26;13.65;;;7.15;;
28447;SDS011;15675;52.870;-1.416;2023-04-21T11:31:55;16.70;;;7.63;;
28447;SDS011;15675;52.870;-1.416;2023-04-21T11:34:24;18.65;;;7.93;;
28447;SDS011;15675;52.870;-1.416;2023-04-21T11:36:50;14.25;;;6.57;;
28447;SDS011;15675;52.870;-1.416;2023-04-21T11:39:16;8.70;;;5.18;;
28447;SDS011;15675;52.870;-1.416;2023-04-21T11:41:46;13.90;;;6.30;;
28447;SDS011;15675;52.870;-1.416;2023-04-21T11:44:13;19.30;;;7.25;;
28447;SDS011;15675;52.870;-1.416;2023-04-21T11:46:55;10.63;;;5.93;;
28447;SDS011;15675;52.870;-1.416;2023-04-21T11:49:23;10.00;;;5.53;;
28447;SDS011;15675;52.870;-1.416;2023-04-21T11:51:49;9.52;;;6.68;;
28447;SDS011;15675;52.870;-1.416;2023-04-21T11:54:16;13.65;;;6.32;;
28447;SDS011;15675;52.870;-1.416;2023-04-21T11:56:45;9.95;;;6.57;;
28447;SDS011;15675;52.870;-1.416;2023-04-21T11:59:13;10.73;;;6.93;;
28447;SDS011;15675;52.870;-1.416;2023-04-21T12:01:46;11.43;;;5.60;;
28447;SDS011;15675;52.870;-1.416;2023-04-21T12:04:25;13.55;;;5.78;;
28447;SDS011;15675;52.870;-1.416;2023-04-21T12:06:58;12.00;;;6.38;;
28447;SDS011;15675;52.870;-1.416;2023-04-21T12:09:26;15.25;;;5.90;;
28447;SDS011;15675;52.870;-1.416;2023-04-21T12:11:53;9.85;;;5.30;;
28447;SDS011;15675;52.870;-1.416;2023-04-21T12:14:28;11.75;;;5.72;;
28447;SDS011;15675;52.870;-1.416;2023-04-21T12:16:57;7.35;;;4.95;;
28447;SDS011;15675;52.870;-1.416;2023-04-21T12:19:41;15.25;;;6.75;;
28447;SDS011;15675;52.870;-1.416;2023-04-21T12:24:33;7.40;;;4.93;;
28447;SDS011;15675;52.870;-1.416;2023-04-21T12:26:59;16.25;;;6.40;;
28447;SDS011;15675;52.870;-1.416;2023-04-21T12:29:26;10.90;;;6.63;;
28447;SDS011;15675;52.870;-1.416;2023-04-21T12:31:52;12.07;;;7.28;;
28447;SDS011;15675;52.870;-1.416;2023-04-21T12:34:18;12.38;;;6.13;;
28447;SDS011;15675;52.870;-1.416;2023-04-21T12:36:43;11.25;;;6.35;;
28447;SDS011;15675;52.870;-1.416;2023-04-21T12:39:09;11.35;;;6.95;;
28447;SDS011;15675;52.870;-1.416;2023-04-21T12:41:34;10.35;;;6.20;;
28447;SDS011;15675;52.870;-1.416;2023-04-21T12:44:00;9.95;;;5.25;;
28447;SDS011;15675;52.870;-1.416;2023-04-21T12:46:26;8.10;;;4.85;;
28447;SDS011;15675;52.870;-1.416;2023-04-21T12:48:52;9.75;;;5.35;;
28447;SDS011;15675;52.870;-1.416;2023-04-21T12:51:18;11.75;;;6.40;;
28447;SDS011;15675;52.870;-1.416;2023-04-21T12:53:43;10.90;;;7.43;;
28447;SDS011;15675;52.870;-1.416;2023-04-21T12:56:10;10.02;;;7.10;;
28447;SDS011;15675;52.870;-1.416;2023-04-21T12:58:35;12.27;;;7.38;;
28447;SDS011;15675;52.870;-1.416;2023-04-21T13:01:01;11.55;;;6.95;;
28447;SDS011;15675;52.870;-1.416;2023-04-21T13:03:26;11.63;;;7.13;;
28447;SDS011;15675;52.870;-1.416;2023-04-21T13:05:52;8.20;;;5.90;;
28447;SDS011;15675;52.870;-1.416;2023-04-21T13:08:17;10.25;;;6.50;;
28447;SDS011;15675;52.870;-1.416;2023-04-21T13:10:43;7.60;;;4.53;;
28447;SDS011;15675;52.870;-1.416;2023-04-21T13:13:10;12.95;;;5.57;;
28447;SDS011;15675;52.870;-1.416;2023-04-21T13:15:35;9.60;;;6.45;;
28447;SDS011;15675;52.870;-1.416;2023-04-21T13:18:01;6.93;;;5.82;;
28447;SDS011;15675;52.870;-1.416;2023-04-21T13:20:27;7.10;;;5.70;;
28447;SDS011;15675;52.870;-1.416;2023-04-21T13:22:52;9.65;;;6.60;;
28447;SDS011;15675;52.870;-1.416;2023-04-21T13:25:18;11.98;;;7.63;;
28447;SDS011;15675;52.870;-1.416;2023-04-21T13:27:43;8.35;;;6.28;;
28447;SDS011;15675;52.870;-1.416;2023-04-21T13:30:11;8.98;;;6.47;;
28447;SDS011;15675;52.870;-1.416;2023-04-21T13:32:37;10.60;;;7.22;;
28447;SDS011;15675;52.870;-1.416;2023-04-21T13:35:03;10.82;;;7.22;;
28447;SDS011;15675;52.870;-1.416;2023-04-21T13:37:36;9.23;;;6.57;;
28447;SDS011;15675;52.870;-1.416;2023-04-21T13:40:02;14.95;;;7.05;;
28447;SDS011;15675;52.870;-1.416;2023-04-21T13:42:29;9.77;;;7.13;;
28447;SDS011;15675;52.870;-1.416;2023-04-21T13:44:55;12.10;;;8.07;;
28447;SDS011;15675;52.870;-1.416;2023-04-21T13:47:21;10.68;;;8.63;;
28447;SDS011;15675;52.870;-1.416;2023-04-21T13:49:48;8.38;;;6.65;;
28447;SDS011;15675;52.870;-1.416;2023-04-21T13:52:15;8.57;;;5.90;;
28447;SDS011;15675;52.870;-1.416;2023-04-21T13:54:41;9.98;;;7.45;;
28447;SDS011;15675;52.870;-1.416;2023-04-21T13:57:06;10.02;;;6.70;;
28447;SDS011;15675;52.870;-1.416;2023-04-21T13:59:33;11.52;;;7.10;;
28447;SDS011;15675;52.870;-1.416;2023-04-21T14:01:58;9.15;;;6.90;;
28447;SDS011;15675;52.870;-1.416;2023-04-21T14:04:24;11.95;;;6.70;;
28447;SDS011;15675;52.870;-1.416;2023-04-21T14:06:50;9.57;;;6.75;;
28447;SDS011;15675;52.870;-1.416;2023-04-21T14:09:15;10.30;;;6.60;;
28447;SDS011;15675;52.870;-1.416;2023-04-21T14:11:41;10.68;;;7.13;;
28447;SDS011;15675;52.870;-1.416;2023-04-21T14:14:06;10.60;;;7.30;;
28447;SDS011;15675;52.870;-1.416;2023-04-21T14:16:32;12.10;;;7.28;;
28447;SDS011;15675;52.870;-1.416;2023-04-21T14:18:58;11.00;;;7.55;;
28447;SDS011;15675;52.870;-1.416;2023-04-21T14:21:23;11.27;;;7.72;;
28447;SDS011;15675;52.870;-1.416;2023-04-21T14:23:49;10.23;;;7.43;;
28447;SDS011;15675;52.870;-1.416;2023-04-21T14:26:14;10.40;;;6.75;;
28447;SDS011;15675;52.870;-1.416;2023-04-21T14:28:40;13.77;;;7.28;;
28447;SDS011;15675;52.870;-1.416;2023-04-21T14:31:06;12.45;;;8.43;;
28447;SDS011;15675;52.870;-1.416;2023-04-21T14:33:32;10.05;;;6.65;;
28447;SDS011;15675;52.870;-1.416;2023-04-21T14:35:58;12.25;;;6.97;;
28447;SDS011;15675;52.870;-1.416;2023-04-21T14:38:23;12.45;;;9.70;;
28447;SDS011;15675;52.870;-1.416;2023-04-21T14:40:50;11.73;;;8.15;;